sensor_id;sensor_type;location;lat;lon;timestamp;pressure;altitude;pressure_sealevel;temperature;humidity
31285;BME280;56605;51.516;6.742;2023-04-26T00:01:39;101710.53;;;2.53;100.00
31285;BME280;56605;51.516;6.742;2023-04-26T00:04:04;101712.38;;;2.68;100.00
31285;BME280;56605;51.516;6.742;2023-04-26T00:06:29;101713.31;;;2.66;100.00
31285;BME280;56605;51.516;6.742;2023-04-26T00:08:55;101710.38;;;2.71;100.00
31285;BME280;56605;51.516;6.742;2023-04-26T00:11:20;101708.69;;;2.85;100.00
31285;BME280;56605;51.516;6.742;2023-04-26T00:13:45;101710.78;;;2.94;100.00
31285;BME280;56605;51.516;6.742;2023-04-26T00:16:12;101707.97;;;2.97;100.00
31285;BME280;56605;51.516;6.742;2023-04-26T00:18:38;101706.56;;;2.91;100.00
31285;BME280;56605;51.516;6.742;2023-04-26T00:21:04;101710.50;;;2.84;100.00
31285;BME280;56605;51.516;6.742;2023-04-26T00:23:29;101712.66;;;2.77;100.00
31285;BME280;56605;51.516;6.742;2023-04-26T00:25:55;101708.16;;;2.79;100.00
31285;BME280;56605;51.516;6.742;2023-04-26T00:28:21;101703.47;;;2.54;100.00
31285;BME280;56605;51.516;6.742;2023-04-26T00:30:46;101708.03;;;2.66;100.00
31285;BME280;56605;51.516;6.742;2023-04-26T00:33:13;101704.63;;;2.50;100.00
31285;BME280;56605;51.516;6.742;2023-04-26T00:35:38;101701.38;;;2.45;100.00
31285;BME280;56605;51.516;6.742;2023-04-26T00:38:04;101698.59;;;2.17;100.00
31285;BME280;56605;51.516;6.742;2023-04-26T00:40:29;101695.78;;;2.20;100.00
31285;BME280;56605;51.516;6.742;2023-04-26T00:42:58;101698.19;;;2.39;100.00
31285;BME280;56605;51.516;6.742;2023-04-26T00:45:23;101697.41;;;2.37;100.00
31285;BME280;56605;51.516;6.742;2023-04-26T00:47:49;101697.00;;;2.60;100.00
31285;BME280;56605;51.516;6.742;2023-04-26T00:50:15;101692.91;;;2.39;100.00
31285;BME280;56605;51.516;6.742;2023-04-26T00:52:42;101700.72;;;2.41;100.00
31285;BME280;56605;51.516;6.742;2023-04-26T00:55:07;101703.47;;;2.39;100.00
31285;BME280;56605;51.516;6.742;2023-04-26T00:57:33;101698.47;;;2.49;100.00
31285;BME280;56605;51.516;6.742;2023-04-26T00:59:58;101688.03;;;2.48;100.00
31285;BME280;56605;51.516;6.742;2023-04-26T01:02:24;101693.72;;;2.56;100.00
31285;BME280;56605;51.516;6.742;2023-04-26T01:04:49;101686.44;;;2.60;100.00
31285;BME280;56605;51.516;6.742;2023-04-26T01:07:15;101688.22;;;2.59;100.00
31285;BME280;56605;51.516;6.742;2023-04-26T01:09:41;101692.00;;;2.55;100.00
31285;BME280;56605;51.516;6.742;2023-04-26T01:12:08;101687.66;;;2.54;100.00
31285;BME280;56605;51.516;6.742;2023-04-26T01:14:34;101695.22;;;2.60;100.00
31285;BME280;56605;51.516;6.742;2023-04-26T01:17:01;101690.03;;;2.59;100.00
31285;BME280;56605;51.516;6.742;2023-04-26T01:19:27;101692.75;;;2.57;100.00
31285;BME280;56605;51.516;6.742;2023-04-26T01:21:53;101701.50;;;2.58;100.00
31285;BME280;56605;51.516;6.742;2023-04-26T01:24:19;101707.25;;;2.50;100.00
31285;BME280;56605;51.516;6.742;2023-04-26T01:26:44;101704.03;;;2.45;100.00
31285;BME280;56605;51.516;6.742;2023-04-26T01:29:18;101707.25;;;2.50;100.00
31285;BME280;56605;51.516;6.742;2023-04-26T01:31:44;101703.00;;;2.47;100.00
31285;BME280;56605;51.516;6.742;2023-04-26T01:34:09;101711.09;;;2.44;100.00
31285;BME280;56605;51.516;6.742;2023-04-26T01:36:35;101706.03;;;2.56;100.00
31285;BME280;56605;51.516;6.742;2023-04-26T01:39:00;101704.09;;;2.43;100.00
31285;BME280;56605;51.516;6.742;2023-04-26T01:41:25;101704.97;;;2.44;100.00
31285;BME280;56605;51.516;6.742;2023-04-26T01:43:50;101705.16;;;2.40;100.00
31285;BME280;56605;51.516;6.742;2023-04-26T01:46:16;101701.00;;;2.36;100.00
31285;BME280;56605;51.516;6.742;2023-04-26T01:48:41;101707.22;;;2.35;100.00
31285;BME280;56605;51.516;6.742;2023-04-26T01:51:06;101699.41;;;2.34;100.00
31285;BME280;56605;51.516;6.742;2023-04-26T01:53:32;101704.66;;;2.34;100.00
31285;BME280;56605;51.516;6.742;2023-04-26T01:56:01;101699.56;;;2.31;100.00
31285;BME280;56605;51.516;6.742;2023-04-26T01:58:30;101699.56;;;2.31;100.00
31285;BME280;56605;51.516;6.742;2023-04-26T02:00:56;101707.38;;;2.32;100.00
31285;BME280;56605;51.516;6.742;2023-04-26T02:03:22;101706.34;;;2.35;100.00
31285;BME280;56605;51.516;6.742;2023-04-26T02:05:47;101707.47;;;2.31;100.00
31285;BME280;56605;51.516;6.742;2023-04-26T02:08:12;101718.38;;;2.24;100.00
31285;BME280;56605;51.516;6.742;2023-04-26T02:10:38;101716.09;;;2.18;100.00
31285;BME280;56605;51.516;6.742;2023-04-26T02:13:03;101716.78;;;2.22;100.00
31285;BME280;56605;51.516;6.742;2023-04-26T02:15:29;101715.25;;;2.18;100.00
31285;BME280;56605;51.516;6.742;2023-04-26T02:17:55;101717.19;;;2.14;100.00
31285;BME280;56605;51.516;6.742;2023-04-26T02:20:20;101710.97;;;2.15;100.00
31285;BME280;56605;51.516;6.742;2023-04-26T02:22:47;101714.00;;;2.09;100.00
31285;BME280;56605;51.516;6.742;2023-04-26T02:25:12;101716.13;;;2.02;100.00
31285;BME280;56605;51.516;6.742;2023-04-26T02:27:37;101715.38;;;2.00;100.00
31285;BME280;56605;51.516;6.742;2023-04-26T02:30:03;101714.59;;;1.98;100.00
31285;BME280;56605;51.516;6.742;2023-04-26T02:32:29;101709.66;;;1.92;100.00
31285;BME280;56605;51.516;6.742;2023-04-26T02:34:54;101710.53;;;1.92;100.00
31285;BME280;56605;51.516;6.742;2023-04-26T02:37:20;101711.56;;;1.89;100.00
31285;BME280;56605;51.516;6.742;2023-04-26T02:39:49;101707.66;;;1.81;100.00
31285;BME280;56605;51.516;6.742;2023-04-26T02:42:15;101697.97;;;1.81;100.00
31285;BME280;56605;51.516;6.742;2023-04-26T02:44:40;101707.75;;;1.79;100.00
31285;BME280;56605;51.516;6.742;2023-04-26T02:47:07;101709.59;;;1.77;100.00
31285;BME280;56605;51.516;6.742;2023-04-26T02:49:32;101695.66;;;1.75;100.00
31285;BME280;56605;51.516;6.742;2023-04-26T02:51:57;101708.09;;;1.73;100.00
31285;BME280;56605;51.516;6.742;2023-04-26T02:54:22;101704.84;;;1.68;100.00
31285;BME280;56605;51.516;6.742;2023-04-26T02:56:48;101711.06;;;1.67;100.00
31285;BME280;56605;51.516;6.742;2023-04-26T02:59:13;101700.69;;;1.63;100.00
31285;BME280;56605;51.516;6.742;2023-04-26T03:01:38;101705.00;;;1.64;100.00
31285;BME280;56605;51.516;6.742;2023-04-26T03:04:04;101698.66;;;1.69;100.00
31285;BME280;56605;51.516;6.742;2023-04-26T03:06:29;101700.09;;;1.74;100.00
31285;BME280;56605;51.516;6.742;2023-04-26T03:08:54;101703.38;;;1.78;100.00
31285;BME280;56605;51.516;6.742;2023-04-26T03:11:20;101707.22;;;1.72;100.00
31285;BME280;56605;51.516;6.742;2023-04-26T03:13:45;101707.47;;;1.68;100.00
31285;BME280;56605;51.516;6.742;2023-04-26T03:16:11;101709.44;;;1.64;100.00
31285;BME280;56605;51.516;6.742;2023-04-26T03:18:36;101699.00;;;1.62;100.00
31285;BME280;56605;51.516;6.742;2023-04-26T03:21:01;101708.00;;;1.58;100.00
31285;BME280;56605;51.516;6.742;2023-04-26T03:23:27;101694.22;;;1.53;100.00
31285;BME280;56605;51.516;6.742;2023-04-26T03:25:53;101706.53;;;1.52;100.00
31285;BME280;56605;51.516;6.742;2023-04-26T03:28:18;101707.22;;;1.56;100.00
31285;BME280;56605;51.516;6.742;2023-04-26T03:30:44;101693.28;;;1.54;100.00
31285;BME280;56605;51.516;6.742;2023-04-26T03:33:09;101690.06;;;1.49;100.00
31285;BME280;56605;51.516;6.742;2023-04-26T03:35:35;101696.00;;;1.52;100.00
31285;BME280;56605;51.516;6.742;2023-04-26T03:38:01;101694.47;;;1.48;100.00
31285;BME280;56605;51.516;6.742;2023-04-26T03:40:26;101696.88;;;1.53;100.00
31285;BME280;56605;51.516;6.742;2023-04-26T03:42:51;101688.72;;;1.58;100.00
31285;BME280;56605;51.516;6.742;2023-04-26T03:45:16;101686.00;;;1.59;100.00
31285;BME280;56605;51.516;6.742;2023-04-26T03:47:42;101691.59;;;1.53;100.00
31285;BME280;56605;51.516;6.742;2023-04-26T03:50:07;101681.06;;;1.53;100.00
31285;BME280;56605;51.516;6.742;2023-04-26T03:52:33;101680.31;;;1.51;100.00
31285;BME280;56605;51.516;6.742;2023-04-26T03:54:58;101683.38;;;1.59;100.00
31285;BME280;56605;51.516;6.742;2023-04-26T03:57:23;101677.16;;;1.60;100.00
31285;BME280;56605;51.516;6.742;2023-04-26T03:59:49;101693.72;;;1.30;100.00
31285;BME280;56605;51.516;6.742;2023-04-26T04:02:14;101685.34;;;1.06;100.00
31285;BME280;56605;51.516;6.742;2023-04-26T04:04:40;101689.41;;;0.95;100.00
31285;BME280;56605;51.516;6.742;2023-04-26T04:07:05;101682.38;;;0.96;100.00
31285;BME280;56605;51.516;6.742;2023-04-26T04:09:31;101683.75;;;1.03;100.00
31285;BME280;56605;51.516;6.742;2023-04-26T04:11:57;101690.50;;;0.91;100.00
31285;BME280;56605;51.516;6.742;2023-04-26T04:14:22;101684.97;;;0.80;100.00
31285;BME280;56605;51.516;6.742;2023-04-26T04:16:47;101676.38;;;0.76;100.00
31285;BME280;56605;51.516;6.742;2023-04-26T04:19:12;101682.84;;;0.86;100.00
31285;BME280;56605;51.516;6.742;2023-04-26T04:21:38;101683.31;;;0.77;100.00
31285;BME280;56605;51.516;6.742;2023-04-26T04:24:05;101687.22;;;0.70;100.00
31285;BME280;56605;51.516;6.742;2023-04-26T04:26:30;101688.00;;;0.72;100.00
31285;BME280;56605;51.516;6.742;2023-04-26T04:28:55;101702.16;;;0.69;100.00
31285;BME280;56605;51.516;6.742;2023-04-26T04:31:21;101696.81;;;0.53;100.00
31285;BME280;56605;51.516;6.742;2023-04-26T04:33:46;101699.59;;;0.68;100.00
31285;BME280;56605;51.516;6.742;2023-04-26T04:36:13;101706.00;;;0.80;100.00
31285;BME280;56605;51.516;6.742;2023-04-26T04:38:41;101707.72;;;0.63;100.00
31285;BME280;56605;51.516;6.742;2023-04-26T04:41:06;101709.16;;;0.69;100.00
31285;BME280;56605;51.516;6.742;2023-04-26T04:43:32;101711.28;;;0.62;100.00
31285;BME280;56605;51.516;6.742;2023-04-26T04:45:58;101703.91;;;0.69;100.00
31285;BME280;56605;51.516;6.742;2023-04-26T04:48:23;101712.97;;;0.63;100.00
31285;BME280;56605;51.516;6.742;2023-04-26T04:50:48;101711.78;;;0.86;100.00
31285;BME280;56605;51.516;6.742;2023-04-26T04:53:14;101717.50;;;0.95;100.00
31285;BME280;56605;51.516;6.742;2023-04-26T04:55:40;101710.44;;;0.95;100.00
31285;BME280;56605;51.516;6.742;2023-04-26T04:58:05;101715.53;;;0.98;100.00
31285;BME280;56605;51.516;6.742;2023-04-26T05:00:31;101719.47;;;1.07;100.00
31285;BME280;56605;51.516;6.742;2023-04-26T05:02:56;101720.59;;;1.19;100.00
31285;BME280;56605;51.516;6.742;2023-04-26T05:05:21;101716.13;;;1.37;100.00
31285;BME280;56605;51.516;6.742;2023-04-26T05:07:47;101720.13;;;1.61;100.00
31285;BME280;56605;51.516;6.742;2023-04-26T05:10:12;101733.81;;;1.68;100.00
31285;BME280;56605;51.516;6.742;2023-04-26T05:12:38;101726.19;;;1.79;100.00
31285;BME280;56605;51.516;6.742;2023-04-26T05:15:04;101722.19;;;1.88;100.00
31285;BME280;56605;51.516;6.742;2023-04-26T05:17:30;101721.88;;;1.93;100.00
31285;BME280;56605;51.516;6.742;2023-04-26T05:19:56;101721.88;;;1.93;100.00
31285;BME280;56605;51.516;6.742;2023-04-26T05:22:21;101730.53;;;2.11;100.00
31285;BME280;56605;51.516;6.742;2023-04-26T05:24:47;101731.63;;;2.23;100.00
31285;BME280;56605;51.516;6.742;2023-04-26T05:27:13;101738.31;;;2.28;100.00
31285;BME280;56605;51.516;6.742;2023-04-26T05:29:41;101737.38;;;2.30;100.00
31285;BME280;56605;51.516;6.742;2023-04-26T05:32:07;101744.19;;;2.34;100.00
31285;BME280;56605;51.516;6.742;2023-04-26T05:34:32;101731.84;;;2.34;100.00
31285;BME280;56605;51.516;6.742;2023-04-26T05:36:58;101737.16;;;2.49;100.00
31285;BME280;56605;51.516;6.742;2023-04-26T05:39:26;101746.78;;;2.50;100.00
31285;BME280;56605;51.516;6.742;2023-04-26T05:41:51;101745.94;;;2.49;100.00
31285;BME280;56605;51.516;6.742;2023-04-26T05:44:17;101747.72;;;2.49;100.00
31285;BME280;56605;51.516;6.742;2023-04-26T05:46:45;101752.97;;;2.49;100.00
31285;BME280;56605;51.516;6.742;2023-04-26T05:49:11;101742.09;;;2.55;100.00
31285;BME280;56605;51.516;6.742;2023-04-26T05:51:37;101744.38;;;2.61;100.00
31285;BME280;56605;51.516;6.742;2023-04-26T05:54:05;101747.38;;;2.70;100.00
31285;BME280;56605;51.516;6.742;2023-04-26T05:56:30;101749.41;;;2.81;100.00
31285;BME280;56605;51.516;6.742;2023-04-26T05:58:56;101753.00;;;2.94;100.00
31285;BME280;56605;51.516;6.742;2023-04-26T06:01:22;101744.03;;;2.97;100.00
31285;BME280;56605;51.516;6.742;2023-04-26T06:03:47;101758.19;;;3.10;100.00
31285;BME280;56605;51.516;6.742;2023-04-26T06:06:12;101748.69;;;3.22;100.00
31285;BME280;56605;51.516;6.742;2023-04-26T06:08:41;101755.09;;;3.33;100.00
31285;BME280;56605;51.516;6.742;2023-04-26T06:11:07;101751.41;;;3.35;100.00
31285;BME280;56605;51.516;6.742;2023-04-26T06:13:32;101758.47;;;3.35;100.00
31285;BME280;56605;51.516;6.742;2023-04-26T06:15:58;101764.13;;;3.58;100.00
31285;BME280;56605;51.516;6.742;2023-04-26T06:18:24;101761.91;;;3.64;100.00
31285;BME280;56605;51.516;6.742;2023-04-26T06:20:50;101763.22;;;3.72;100.00
31285;BME280;56605;51.516;6.742;2023-04-26T06:23:16;101761.59;;;3.84;100.00
31285;BME280;56605;51.516;6.742;2023-04-26T06:25:41;101769.41;;;4.00;100.00
31285;BME280;56605;51.516;6.742;2023-04-26T06:28:09;101763.63;;;4.08;100.00
31285;BME280;56605;51.516;6.742;2023-04-26T06:30:34;101770.38;;;4.12;100.00
31285;BME280;56605;51.516;6.742;2023-04-26T06:33:00;101761.34;;;4.16;100.00
31285;BME280;56605;51.516;6.742;2023-04-26T06:35:25;101765.72;;;4.30;100.00
31285;BME280;56605;51.516;6.742;2023-04-26T06:37:50;101769.75;;;4.49;100.00
31285;BME280;56605;51.516;6.742;2023-04-26T06:40:16;101771.91;;;4.56;100.00
31285;BME280;56605;51.516;6.742;2023-04-26T06:42:41;101770.72;;;4.48;100.00
31285;BME280;56605;51.516;6.742;2023-04-26T06:45:08;101764.31;;;4.65;100.00
31285;BME280;56605;51.516;6.742;2023-04-26T06:47:33;101759.56;;;4.70;100.00
31285;BME280;56605;51.516;6.742;2023-04-26T06:49:59;101762.88;;;5.00;100.00
31285;BME280;56605;51.516;6.742;2023-04-26T06:52:24;101765.00;;;5.07;100.00
31285;BME280;56605;51.516;6.742;2023-04-26T06:54:50;101764.88;;;5.09;100.00
31285;BME280;56605;51.516;6.742;2023-04-26T06:57:15;101750.03;;;4.93;100.00
31285;BME280;56605;51.516;6.742;2023-04-26T06:59:41;101752.38;;;4.72;100.00
31285;BME280;56605;51.516;6.742;2023-04-26T07:02:06;101760.63;;;4.67;100.00
31285;BME280;56605;51.516;6.742;2023-04-26T07:04:32;101757.56;;;4.74;100.00
31285;BME280;56605;51.516;6.742;2023-04-26T07:06:57;101756.28;;;4.79;100.00
31285;BME280;56605;51.516;6.742;2023-04-26T07:09:22;101765.72;;;4.97;100.00
31285;BME280;56605;51.516;6.742;2023-04-26T07:11:47;101760.72;;;5.05;100.00
31285;BME280;56605;51.516;6.742;2023-04-26T07:14:13;101766.88;;;5.18;100.00
31285;BME280;56605;51.516;6.742;2023-04-26T07:16:38;101767.78;;;5.43;100.00
31285;BME280;56605;51.516;6.742;2023-04-26T07:19:03;101770.13;;;5.48;100.00
31285;BME280;56605;51.516;6.742;2023-04-26T07:21:29;101755.84;;;5.51;100.00
31285;BME280;56605;51.516;6.742;2023-04-26T07:23:55;101759.47;;;5.74;100.00
31285;BME280;56605;51.516;6.742;2023-04-26T07:26:21;101761.91;;;5.77;100.00
31285;BME280;56605;51.516;6.742;2023-04-26T07:28:47;101764.22;;;5.82;100.00
31285;BME280;56605;51.516;6.742;2023-04-26T07:31:12;101759.31;;;5.89;100.00
31285;BME280;56605;51.516;6.742;2023-04-26T07:33:37;101757.06;;;6.08;100.00
31285;BME280;56605;51.516;6.742;2023-04-26T07:36:03;101754.38;;;6.33;100.00
31285;BME280;56605;51.516;6.742;2023-04-26T07:38:29;101765.66;;;5.99;100.00
31285;BME280;56605;51.516;6.742;2023-04-26T07:40:54;101766.00;;;6.19;100.00
31285;BME280;56605;51.516;6.742;2023-04-26T07:43:22;101774.31;;;6.01;100.00
31285;BME280;56605;51.516;6.742;2023-04-26T07:45:47;101762.31;;;6.21;100.00
31285;BME280;56605;51.516;6.742;2023-04-26T07:48:12;101764.84;;;6.23;100.00
31285;BME280;56605;51.516;6.742;2023-04-26T07:50:38;101761.34;;;6.58;100.00
31285;BME280;56605;51.516;6.742;2023-04-26T07:53:03;101762.03;;;6.85;100.00
31285;BME280;56605;51.516;6.742;2023-04-26T07:55:28;101759.34;;;6.74;100.00
31285;BME280;56605;51.516;6.742;2023-04-26T07:57:54;101759.72;;;6.92;100.00
31285;BME280;56605;51.516;6.742;2023-04-26T08:00:19;101758.16;;;6.89;100.00
31285;BME280;56605;51.516;6.742;2023-04-26T08:02:46;101757.91;;;6.81;100.00
31285;BME280;56605;51.516;6.742;2023-04-26T08:05:12;101765.53;;;7.20;100.00
31285;BME280;56605;51.516;6.742;2023-04-26T08:07:38;101757.47;;;7.10;100.00
31285;BME280;56605;51.516;6.742;2023-04-26T08:10:04;101761.47;;;7.39;100.00
31285;BME280;56605;51.516;6.742;2023-04-26T08:12:32;101759.19;;;7.22;100.00
31285;BME280;56605;51.516;6.742;2023-04-26T08:14:59;101761.50;;;6.80;100.00
31285;BME280;56605;51.516;6.742;2023-04-26T08:17:25;101755.03;;;6.84;100.00
31285;BME280;56605;51.516;6.742;2023-04-26T08:19:50;101750.41;;;6.75;100.00
31285;BME280;56605;51.516;6.742;2023-04-26T08:22:16;101752.03;;;7.00;100.00
31285;BME280;56605;51.516;6.742;2023-04-26T08:24:46;101754.81;;;7.21;100.00
31285;BME280;56605;51.516;6.742;2023-04-26T08:27:12;101763.00;;;7.76;99.29
31285;BME280;56605;51.516;6.742;2023-04-26T08:29:37;101759.84;;;8.15;97.81
31285;BME280;56605;51.516;6.742;2023-04-26T08:32:02;101761.56;;;8.16;95.98
31285;BME280;56605;51.516;6.742;2023-04-26T08:34:28;101760.94;;;8.12;93.87
31285;BME280;56605;51.516;6.742;2023-04-26T08:36:53;101764.06;;;7.84;94.68
31285;BME280;56605;51.516;6.742;2023-04-26T08:39:18;101766.41;;;8.43;91.92
31285;BME280;56605;51.516;6.742;2023-04-26T08:41:54;101766.22;;;8.56;89.03
31285;BME280;56605;51.516;6.742;2023-04-26T08:44:23;101765.75;;;8.51;88.75
31285;BME280;56605;51.516;6.742;2023-04-26T08:49:39;101773.09;;;7.93;86.77
31285;BME280;56605;51.516;6.742;2023-04-26T08:52:10;101769.91;;;8.11;84.08
31285;BME280;56605;51.516;6.742;2023-04-26T08:54:37;101764.78;;;8.52;84.25
31285;BME280;56605;51.516;6.742;2023-04-26T08:57:03;101769.81;;;8.67;82.70
31285;BME280;56605;51.516;6.742;2023-04-26T08:59:32;101766.69;;;8.83;79.91
31285;BME280;56605;51.516;6.742;2023-04-26T09:01:59;101769.75;;;8.78;77.03
31285;BME280;56605;51.516;6.742;2023-04-26T09:04:25;101769.38;;;8.50;75.63
31285;BME280;56605;51.516;6.742;2023-04-26T09:06:52;101776.53;;;7.49;78.52
31285;BME280;56605;51.516;6.742;2023-04-26T09:09:20;101767.44;;;7.75;75.27
31285;BME280;56605;51.516;6.742;2023-04-26T09:11:57;101776.56;;;7.61;80.15
31285;BME280;56605;51.516;6.742;2023-04-26T09:14:24;101770.97;;;7.53;82.89
31285;BME280;56605;51.516;6.742;2023-04-26T09:16:49;101772.28;;;7.81;83.50
31285;BME280;56605;51.516;6.742;2023-04-26T09:19:16;101779.13;;;8.07;80.94
31285;BME280;56605;51.516;6.742;2023-04-26T09:21:45;101775.00;;;8.35;80.82
31285;BME280;56605;51.516;6.742;2023-04-26T09:24:12;101779.19;;;8.17;79.43
31285;BME280;56605;51.516;6.742;2023-04-26T09:26:38;101772.19;;;7.03;82.34
31285;BME280;56605;51.516;6.742;2023-04-26T09:29:14;101773.56;;;7.98;81.98
31285;BME280;56605;51.516;6.742;2023-04-26T09:31:42;101774.03;;;8.04;78.75
31285;BME280;56605;51.516;6.742;2023-04-26T09:34:12;101771.50;;;8.02;80.75
31285;BME280;56605;51.516;6.742;2023-04-26T09:36:48;101771.69;;;7.66;79.17
31285;BME280;56605;51.516;6.742;2023-04-26T09:39:14;101761.94;;;7.32;82.08
31285;BME280;56605;51.516;6.742;2023-04-26T09:41:53;101767.00;;;7.70;82.06
31285;BME280;56605;51.516;6.742;2023-04-26T09:44:20;101752.03;;;7.34;85.00
31285;BME280;56605;51.516;6.742;2023-04-26T09:47:00;101757.34;;;8.02;86.18
31285;BME280;56605;51.516;6.742;2023-04-26T09:49:31;101754.75;;;8.77;83.25
31285;BME280;56605;51.516;6.742;2023-04-26T09:52:04;101746.59;;;9.72;72.04
31285;BME280;56605;51.516;6.742;2023-04-26T09:54:45;101743.13;;;10.31;71.61
31285;BME280;56605;51.516;6.742;2023-04-26T09:57:13;101750.81;;;10.84;69.86
31285;BME280;56605;51.516;6.742;2023-04-26T09:59:47;101748.28;;;9.83;67.38
31285;BME280;56605;51.516;6.742;2023-04-26T10:02:21;101746.75;;;8.77;69.38
31285;BME280;56605;51.516;6.742;2023-04-26T10:04:49;101750.63;;;9.25;69.35
31285;BME280;56605;51.516;6.742;2023-04-26T10:07:17;101747.75;;;9.38;68.47
31285;BME280;56605;51.516;6.742;2023-04-26T10:09:42;101742.50;;;9.27;69.47
31285;BME280;56605;51.516;6.742;2023-04-26T10:12:10;101744.75;;;9.22;70.63
31285;BME280;56605;51.516;6.742;2023-04-26T10:14:36;101748.94;;;9.15;71.96
31285;BME280;56605;51.516;6.742;2023-04-26T10:17:03;101751.09;;;8.78;69.92
31285;BME280;56605;51.516;6.742;2023-04-26T10:19:29;101748.28;;;9.83;67.44
31285;BME280;56605;51.516;6.742;2023-04-26T10:22:00;101746.41;;;9.54;67.52
31285;BME280;56605;51.516;6.742;2023-04-26T10:24:27;101739.34;;;10.44;69.24
31285;BME280;56605;51.516;6.742;2023-04-26T10:26:54;101738.88;;;11.90;62.47
31285;BME280;56605;51.516;6.742;2023-04-26T10:29:23;101741.75;;;12.25;62.81
31285;BME280;56605;51.516;6.742;2023-04-26T10:34:27;101738.81;;;11.82;60.38
31285;BME280;56605;51.516;6.742;2023-04-26T10:37:15;101733.03;;;12.23;58.89
31285;BME280;56605;51.516;6.742;2023-04-26T10:39:42;101734.94;;;12.49;60.73
31285;BME280;56605;51.516;6.742;2023-04-26T10:44:48;101730.22;;;15.31;49.48
31285;BME280;56605;51.516;6.742;2023-04-26T10:47:30;101729.72;;;13.87;47.68
31285;BME280;56605;51.516;6.742;2023-04-26T10:50:07;101728.56;;;13.47;49.57
31285;BME280;56605;51.516;6.742;2023-04-26T10:52:34;101727.47;;;13.57;50.34
31285;BME280;56605;51.516;6.742;2023-04-26T10:55:00;101724.28;;;13.19;49.89
31285;BME280;56605;51.516;6.742;2023-04-26T10:57:49;101723.19;;;9.86;57.20
31285;BME280;56605;51.516;6.742;2023-04-26T11:00:28;101717.59;;;9.48;60.73
31285;BME280;56605;51.516;6.742;2023-04-26T11:02:57;101724.25;;;10.72;58.36
31285;BME280;56605;51.516;6.742;2023-04-26T11:05:50;101716.53;;;9.50;59.23
31285;BME280;56605;51.516;6.742;2023-04-26T11:11:10;101727.53;;;10.07;61.25
31285;BME280;56605;51.516;6.742;2023-04-26T11:13:40;101730.91;;;9.99;59.49
31285;BME280;56605;51.516;6.742;2023-04-26T11:16:10;101721.66;;;9.42;61.17
31285;BME280;56605;51.516;6.742;2023-04-26T11:18:41;101724.03;;;9.35;61.65
31285;BME280;56605;51.516;6.742;2023-04-26T11:21:07;101720.97;;;9.40;61.32
31285;BME280;56605;51.516;6.742;2023-04-26T11:23:33;101720.59;;;9.55;61.74
31285;BME280;56605;51.516;6.742;2023-04-26T11:26:01;101722.59;;;9.72;61.99
31285;BME280;56605;51.516;6.742;2023-04-26T11:28:28;101721.16;;;9.58;62.21
31285;BME280;56605;51.516;6.742;2023-04-26T11:30:53;101718.06;;;9.63;61.97
31285;BME280;56605;51.516;6.742;2023-04-26T11:33:20;101713.47;;;9.75;61.81
31285;BME280;56605;51.516;6.742;2023-04-26T11:35:50;101704.88;;;9.71;62.12
31285;BME280;56605;51.516;6.742;2023-04-26T11:38:16;101705.63;;;9.93;63.76
31285;BME280;56605;51.516;6.742;2023-04-26T11:40:42;101709.41;;;9.90;62.83
31285;BME280;56605;51.516;6.742;2023-04-26T11:43:08;101716.84;;;10.26;62.54
31285;BME280;56605;51.516;6.742;2023-04-26T11:45:35;101710.38;;;10.29;58.95
31285;BME280;56605;51.516;6.742;2023-04-26T11:48:02;101714.13;;;10.76;58.37
31285;BME280;56605;51.516;6.742;2023-04-26T11:50:28;101709.78;;;10.65;57.71
31285;BME280;56605;51.516;6.742;2023-04-26T11:52:55;101719.56;;;11.78;56.47
31285;BME280;56605;51.516;6.742;2023-04-26T11:55:28;101716.31;;;12.21;55.52
31285;BME280;56605;51.516;6.742;2023-04-26T11:57:56;101714.28;;;12.68;53.11
31285;BME280;56605;51.516;6.742;2023-04-26T12:00:22;101712.06;;;10.60;57.55
31285;BME280;56605;51.516;6.742;2023-04-26T12:02:49;101714.19;;;11.32;57.02
31285;BME280;56605;51.516;6.742;2023-04-26T12:07:50;101708.09;;;10.84;58.42
31285;BME280;56605;51.516;6.742;2023-04-26T12:10:18;101711.25;;;10.20;59.18
31285;BME280;56605;51.516;6.742;2023-04-26T12:12:47;101706.59;;;9.92;61.54
31285;BME280;56605;51.516;6.742;2023-04-26T12:15:13;101701.09;;;8.82;62.90
31285;BME280;56605;51.516;6.742;2023-04-26T12:17:39;101702.34;;;9.50;63.64
31285;BME280;56605;51.516;6.742;2023-04-26T12:20:09;101702.94;;;10.33;62.24
31285;BME280;56605;51.516;6.742;2023-04-26T12:22:35;101705.72;;;10.41;60.08
31285;BME280;56605;51.516;6.742;2023-04-26T12:25:05;101710.28;;;10.11;59.59
31285;BME280;56605;51.516;6.742;2023-04-26T12:27:30;101708.00;;;10.16;61.60
31285;BME280;56605;51.516;6.742;2023-04-26T12:29:56;101707.44;;;9.93;60.68
31285;BME280;56605;51.516;6.742;2023-04-26T12:32:21;101697.16;;;9.58;62.47
31285;BME280;56605;51.516;6.742;2023-04-26T12:34:47;101700.72;;;9.79;66.95
31285;BME280;56605;51.516;6.742;2023-04-26T12:37:12;101701.13;;;9.94;63.23
31285;BME280;56605;51.516;6.742;2023-04-26T12:39:38;101703.06;;;9.62;62.08
31285;BME280;56605;51.516;6.742;2023-04-26T12:42:03;101703.78;;;9.74;62.97
31285;BME280;56605;51.516;6.742;2023-04-26T12:44:28;101704.34;;;10.37;60.41
31285;BME280;56605;51.516;6.742;2023-04-26T12:46:54;101703.88;;;9.52;60.08
31285;BME280;56605;51.516;6.742;2023-04-26T12:49:19;101704.06;;;10.30;60.27
31285;BME280;56605;51.516;6.742;2023-04-26T12:51:45;101699.56;;;10.50;60.37
31285;BME280;56605;51.516;6.742;2023-04-26T12:54:10;101707.59;;;10.21;59.91
31285;BME280;56605;51.516;6.742;2023-04-26T12:56:36;101704.63;;;9.94;61.93
31285;BME280;56605;51.516;6.742;2023-04-26T12:59:08;101701.69;;;10.07;60.00
31285;BME280;56605;51.516;6.742;2023-04-26T13:01:33;101711.09;;;10.21;61.07
31285;BME280;56605;51.516;6.742;2023-04-26T13:03:58;101699.81;;;10.67;60.26